createdAt,value
2018-04-13T00:00:27.248Z,28.73
2018-04-13T00:02:54.797Z,17.33
2018-04-13T00:05:38.854Z,12.20
2018-04-13T00:08:06.399Z,19.37
2018-04-13T00:10:33.954Z,13.00
2018-04-13T00:13:01.525Z,15.93
2018-04-13T00:15:29.092Z,17.23
2018-04-13T00:17:56.638Z,16.10
2018-04-13T00:20:24.186Z,18.63
2018-04-13T00:22:51.763Z,9.23
2018-04-13T00:25:19.315Z,16.20
2018-04-13T00:27:46.879Z,15.07
2018-04-13T00:30:14.429Z,33.50
2018-04-13T00:32:41.958Z,18.20
2018-04-13T00:35:09.505Z,13.53
2018-04-13T00:37:37.029Z,16.67
2018-04-13T00:40:04.601Z,13.00
2018-04-13T00:42:32.147Z,9.47
2018-04-13T00:44:59.683Z,6.47
2018-04-13T00:47:27.224Z,9.03
2018-04-13T00:49:54.777Z,9.80
2018-04-13T00:52:22.297Z,12.40
2018-04-13T00:54:49.848Z,6.03
2018-04-13T00:57:17.381Z,10.60
2018-04-13T00:59:44.906Z,10.30
2018-04-13T01:02:12.464Z,6.43
2018-04-13T01:04:40.010Z,11.13
2018-04-13T01:07:07.566Z,8.67
2018-04-13T01:09:35.146Z,12.00
2018-04-13T01:12:02.685Z,12.00
2018-04-13T01:14:30.223Z,13.50
2018-04-13T01:16:57.767Z,9.77
2018-04-13T01:19:25.307Z,10.17
2018-04-13T01:21:52.861Z,18.27
2018-04-13T01:24:20.431Z,11.20
2018-04-13T01:26:47.965Z,10.23
2018-04-13T01:29:15.506Z,14.00
2018-04-13T01:31:43.056Z,12.30
2018-04-13T01:34:10.765Z,13.70
2018-04-13T01:36:38.317Z,10.57
2018-04-13T01:39:06.753Z,14.03
2018-04-13T01:41:34.282Z,11.60
2018-04-13T01:44:01.867Z,10.17
2018-04-13T01:46:29.381Z,12.10
2018-04-13T01:48:56.872Z,10.67
2018-04-13T01:51:24.356Z,10.50
2018-04-13T01:53:51.871Z,7.10
2018-04-13T01:56:19.344Z,9.30
2018-04-13T01:58:46.830Z,8.00
2018-04-13T02:01:14.309Z,7.03
2018-04-13T02:03:42.150Z,6.67
2018-04-13T02:06:09.623Z,13.70
2018-04-13T02:08:37.173Z,14.63
2018-04-13T02:11:04.727Z,14.57
2018-04-13T02:13:32.294Z,5.23
2018-04-13T02:15:59.796Z,14.57
2018-04-13T02:18:27.403Z,8.87
2018-04-13T02:20:54.904Z,11.00
2018-04-13T02:23:22.403Z,11.63
2018-04-13T02:25:49.873Z,7.10
2018-04-13T02:28:17.343Z,7.20
2018-04-13T02:30:44.845Z,5.10
2018-04-13T02:33:12.352Z,7.43
2018-04-13T02:35:39.847Z,6.00
2018-04-13T02:38:07.328Z,5.93
2018-04-13T02:40:35.108Z,6.90
2018-04-13T02:43:03.048Z,13.37
2018-04-13T02:45:30.909Z,7.80
2018-04-13T02:47:58.444Z,13.53
2018-04-13T02:50:26.003Z,8.50
2018-04-13T02:52:53.596Z,7.67
2018-04-13T02:55:21.136Z,13.40
2018-04-13T02:57:48.668Z,9.60
2018-04-13T03:00:16.231Z,14.43
2018-04-13T03:02:43.747Z,7.60
2018-04-13T03:05:11.273Z,8.60
2018-04-13T03:07:38.912Z,12.17
2018-04-13T03:10:06.401Z,12.37
2018-04-13T03:12:33.940Z,14.70
2018-04-13T03:15:01.431Z,9.23
2018-04-13T03:17:28.910Z,19.70
2018-04-13T03:19:56.415Z,13.57
2018-04-13T03:22:23.884Z,13.80
2018-04-13T03:24:51.394Z,7.70
2018-04-13T03:27:18.943Z,12.93
2018-04-13T03:29:46.414Z,12.17
2018-04-13T03:32:13.891Z,10.27
2018-04-13T03:34:41.375Z,10.40
2018-04-13T03:37:08.847Z,8.90
2018-04-13T03:39:36.328Z,13.73
2018-04-13T03:42:03.862Z,14.67
2018-04-13T03:44:31.364Z,12.00
2018-04-13T03:46:58.832Z,23.97
2018-04-13T03:49:26.300Z,15.00
2018-04-13T03:51:53.789Z,10.40
2018-04-13T03:54:21.271Z,16.13
2018-04-13T03:56:48.821Z,17.23
2018-04-13T03:59:16.363Z,10.00
2018-04-13T04:01:43.846Z,14.37
2018-04-13T04:04:11.708Z,11.53
2018-04-13T04:06:39.183Z,12.47
2018-04-13T04:09:06.823Z,17.87
2018-04-13T04:11:34.331Z,17.90
2018-04-13T04:14:01.796Z,18.53
2018-04-13T04:16:29.312Z,12.70
2018-04-13T04:18:56.792Z,15.90
2018-04-13T04:21:35.962Z,17.57
2018-04-13T04:24:15.209Z,15.30
2018-04-13T04:26:48.195Z,24.40
2018-04-13T04:29:15.662Z,15.17
2018-04-13T04:31:43.156Z,18.90
2018-04-13T04:34:10.667Z,15.33
2018-04-13T04:36:38.155Z,14.90
2018-04-13T04:39:06.434Z,27.03
2018-04-13T04:41:33.944Z,20.60
2018-04-13T04:44:01.444Z,14.73
2018-04-13T04:46:28.970Z,32.10
2018-04-13T04:48:56.448Z,28.77
2018-04-13T04:51:23.987Z,32.60
2018-04-13T04:53:51.539Z,20.77
2018-04-13T04:56:19.052Z,25.63
2018-04-13T04:58:46.554Z,15.90
2018-04-13T05:01:14.026Z,17.13
2018-04-13T05:03:41.529Z,27.47
2018-04-13T05:06:09.008Z,19.83
2018-04-13T05:08:36.509Z,11.70
2018-04-13T05:11:04.074Z,20.00
2018-04-13T05:13:31.646Z,14.40
2018-04-13T05:15:59.207Z,23.07
2018-04-13T05:18:26.758Z,17.77
2018-04-13T05:20:54.294Z,15.17
2018-04-13T05:23:21.823Z,20.40
2018-04-13T05:25:49.389Z,22.33
2018-04-13T05:28:16.930Z,15.13
2018-04-13T05:30:44.400Z,19.97
2018-04-13T05:33:11.916Z,20.40
2018-04-13T05:35:39.409Z,31.10
2018-04-13T05:38:06.945Z,21.30
2018-04-13T05:40:34.439Z,21.63
2018-04-13T05:43:01.933Z,27.43
2018-04-13T05:45:29.421Z,19.63
2018-04-13T05:47:56.964Z,23.83
2018-04-13T05:50:24.514Z,17.60
2018-04-13T05:52:52.026Z,16.50
2018-04-13T05:55:19.568Z,28.53
2018-04-13T05:57:47.106Z,30.37
2018-04-13T06:00:14.667Z,30.33
2018-04-13T06:02:42.221Z,20.20
2018-04-13T06:05:09.769Z,16.80
2018-04-13T06:07:37.353Z,17.93
2018-04-13T06:10:04.890Z,16.93
2018-04-13T06:12:32.430Z,24.20
2018-04-13T06:14:59.982Z,17.40
2018-04-13T06:17:27.515Z,16.93
2018-04-13T06:19:55.087Z,20.13
2018-04-13T06:22:22.621Z,10.07
2018-04-13T06:24:50.097Z,14.50
2018-04-13T06:27:17.669Z,17.10
2018-04-13T06:29:45.941Z,16.90
2018-04-13T06:32:13.465Z,18.33
2018-04-13T06:34:40.951Z,19.73
2018-04-13T06:37:08.479Z,13.43
2018-04-13T06:39:36.187Z,14.17
2018-04-13T06:42:03.718Z,19.57
2018-04-13T06:44:31.255Z,15.10
2018-04-13T06:46:58.831Z,22.57
2018-04-13T06:49:26.363Z,18.63
2018-04-13T06:51:53.896Z,18.73
2018-04-13T06:54:21.457Z,13.80
2018-04-13T06:56:48.992Z,14.47
2018-04-13T06:59:16.559Z,26.70
2018-04-13T07:01:44.048Z,18.43
2018-04-13T07:04:11.542Z,17.47
2018-04-13T07:06:39.127Z,11.63
2018-04-13T07:09:06.664Z,26.27
2018-04-13T07:11:34.196Z,15.40
2018-04-13T07:14:01.790Z,18.47
2018-04-13T07:16:29.314Z,17.60
2018-04-13T07:18:56.805Z,18.50
2018-04-13T07:21:24.307Z,16.30
2018-04-13T07:23:51.795Z,11.23
2018-04-13T07:26:19.312Z,10.73
2018-04-13T07:28:46.857Z,13.43
2018-04-13T07:31:14.331Z,9.00
2018-04-13T07:33:42.020Z,9.13
2018-04-13T07:36:09.655Z,16.37
2018-04-13T07:38:37.799Z,11.10
2018-04-13T07:41:05.040Z,13.10
2018-04-13T07:43:32.880Z,14.90
2018-04-13T07:46:00.270Z,10.47
2018-04-13T07:48:27.763Z,9.43
2018-04-13T07:50:55.305Z,5.63
2018-04-13T07:53:22.838Z,11.57
2018-04-13T07:55:50.419Z,10.93
2018-04-13T07:58:17.956Z,11.80
2018-04-13T08:00:46.045Z,10.13
2018-04-13T08:03:13.098Z,13.07
2018-04-13T08:05:40.665Z,11.07
2018-04-13T08:08:08.536Z,13.60
2018-04-13T08:10:36.099Z,6.80
2018-04-13T08:13:03.632Z,9.07
2018-04-13T08:15:31.240Z,13.30
2018-04-13T08:17:58.796Z,4.50
2018-04-13T08:20:26.315Z,7.53
2018-04-13T08:22:53.856Z,12.60
2018-04-13T08:25:21.395Z,4.83
2018-04-13T08:27:48.950Z,6.83
2018-04-13T08:30:16.436Z,6.77
2018-04-13T08:32:43.969Z,11.63
2018-04-13T08:35:11.523Z,6.17
2018-04-13T08:37:39.061Z,4.10
2018-04-13T08:40:06.615Z,4.93
2018-04-13T08:42:34.210Z,8.93
2018-04-13T08:45:02.439Z,7.60
2018-04-13T08:47:30.016Z,4.90
2018-04-13T08:49:57.584Z,3.57
2018-04-13T08:52:25.136Z,7.63
2018-04-13T08:54:52.793Z,3.47
2018-04-13T08:57:20.690Z,9.57
2018-04-13T08:59:48.248Z,5.40
2018-04-13T09:02:15.810Z,3.87
2018-04-13T09:04:43.347Z,2.37
2018-04-13T09:07:10.918Z,3.33
2018-04-13T09:09:38.481Z,5.60
2018-04-13T09:12:06.008Z,6.47
2018-04-13T09:14:40.214Z,2.60
2018-04-13T09:17:07.695Z,3.50
2018-04-13T09:19:35.235Z,6.53
2018-04-13T09:22:02.780Z,3.93
2018-04-13T09:24:30.343Z,11.13
2018-04-13T09:26:57.909Z,2.93
2018-04-13T09:29:25.481Z,3.23
2018-04-13T09:31:53.040Z,1.60
2018-04-13T09:34:20.586Z,2.30
2018-04-13T09:36:48.128Z,1.23
2018-04-13T09:39:15.677Z,2.90
2018-04-13T09:41:43.229Z,1.53
2018-04-13T09:44:10.805Z,2.43
2018-04-13T09:46:38.340Z,3.10
2018-04-13T09:49:05.880Z,1.40
2018-04-13T09:51:33.432Z,11.10
2018-04-13T09:54:00.973Z,6.70
2018-04-13T09:56:28.533Z,1.10
2018-04-13T09:58:56.088Z,2.97
2018-04-13T10:01:23.658Z,1.70
2018-04-13T10:06:57.958Z,5.70
2018-04-13T10:09:25.475Z,1.60
2018-04-13T10:11:53.057Z,1.50
2018-04-13T10:14:20.582Z,2.30
2018-04-13T10:16:48.118Z,2.60
2018-04-13T10:19:15.631Z,0.90
2018-04-13T10:21:43.226Z,1.30
2018-04-13T10:24:10.797Z,2.10
2018-04-13T10:26:38.363Z,2.23
2018-04-13T10:29:12.687Z,2.47
2018-04-13T10:31:45.719Z,3.30
2018-04-13T10:34:13.263Z,1.20
2018-04-13T10:36:40.800Z,4.73
2018-04-13T10:39:08.409Z,4.43
2018-04-13T10:41:35.945Z,2.37
2018-04-13T10:44:03.475Z,2.97
2018-04-13T10:46:31.045Z,1.67
2018-04-13T10:48:58.591Z,2.60
2018-04-13T10:51:26.189Z,7.93
2018-04-13T10:53:53.744Z,3.23
2018-04-13T10:56:21.651Z,2.30
2018-04-13T10:58:49.491Z,0.97
2018-04-13T11:01:17.243Z,2.10
2018-04-13T11:03:45.233Z,3.27
2018-04-13T11:06:12.817Z,3.23
2018-04-13T11:08:41.801Z,3.07
2018-04-13T11:11:09.848Z,0.97
2018-04-13T11:13:37.373Z,3.00
2018-04-13T11:16:13.040Z,4.23
2018-04-13T11:18:45.779Z,2.47
2018-04-13T11:21:13.328Z,4.63
2018-04-13T11:23:40.895Z,2.60
2018-04-13T11:26:13.858Z,2.07
2018-04-13T11:28:41.401Z,1.80
2018-04-13T11:31:09.666Z,1.33
2018-04-13T11:33:37.868Z,1.57
2018-04-13T11:36:05.680Z,4.77
2018-04-13T11:38:34.143Z,4.63
2018-04-13T11:41:01.713Z,0.70
2018-04-13T11:43:30.526Z,1.67
2018-04-13T11:45:58.637Z,0.70
2018-04-13T11:48:26.247Z,2.93
2018-04-13T11:50:55.739Z,1.37
2018-04-13T11:53:24.239Z,0.87
2018-04-13T11:55:55.450Z,4.40
2018-04-13T11:58:23.761Z,1.83
2018-04-13T12:00:52.502Z,3.93
2018-04-13T12:03:23.043Z,3.87
2018-04-13T12:05:56.078Z,7.10
2018-04-13T12:11:27.655Z,8.80
2018-04-13T12:13:55.335Z,3.57
2018-04-13T12:16:22.936Z,3.40
2018-04-13T12:18:56.055Z,7.20
2018-04-13T12:21:28.043Z,2.90
2018-04-13T12:23:59.052Z,8.80
2018-04-13T12:26:28.493Z,3.53
2018-04-13T12:28:56.677Z,3.60
2018-04-13T12:31:24.297Z,3.80
2018-04-13T12:33:51.900Z,1.63
2018-04-13T12:36:19.499Z,4.43
2018-04-13T12:38:47.120Z,2.80
2018-04-13T12:41:14.671Z,3.07
2018-04-13T12:43:42.333Z,6.07
2018-04-13T12:46:10.010Z,4.67
2018-04-13T12:48:37.644Z,1.30
2018-04-13T12:51:05.272Z,0.90
2018-04-13T12:53:32.954Z,5.00
2018-04-13T12:56:00.530Z,2.80
2018-04-13T12:58:28.168Z,3.90
2018-04-13T13:00:55.867Z,6.23
2018-04-13T13:03:23.468Z,1.60
2018-04-13T13:05:51.114Z,3.73
2018-04-13T13:08:18.724Z,14.97
2018-04-13T13:10:46.316Z,3.20
2018-04-13T13:13:13.916Z,2.80
2018-04-13T13:15:41.549Z,3.83
2018-04-13T13:18:09.246Z,6.90
2018-04-13T13:20:37.001Z,3.73
2018-04-13T13:23:04.578Z,3.90
2018-04-13T13:25:32.142Z,2.47
2018-04-13T13:28:00.033Z,4.07
2018-04-13T13:30:27.765Z,2.70
2018-04-13T13:32:55.360Z,3.47
2018-04-13T13:35:23.071Z,2.80
2018-04-13T13:37:50.676Z,0.80
2018-04-13T13:40:18.472Z,2.30
2018-04-13T13:42:51.197Z,2.30
2018-04-13T13:45:19.086Z,1.97
2018-04-13T13:47:46.679Z,3.17
2018-04-13T13:50:14.232Z,2.60
2018-04-13T13:52:41.811Z,2.57
2018-04-13T13:55:09.398Z,2.50
2018-04-13T13:57:36.965Z,1.83
2018-04-13T14:00:05.167Z,2.53
2018-04-13T14:02:32.716Z,1.53
2018-04-13T14:05:00.270Z,2.93
2018-04-13T14:07:27.856Z,2.97
2018-04-13T14:12:58.531Z,4.83
2018-04-13T14:15:26.078Z,4.40
2018-04-13T14:17:53.633Z,3.93
2018-04-13T14:20:21.216Z,2.63
2018-04-13T14:22:48.811Z,1.33
2018-04-13T14:25:16.377Z,2.00
2018-04-13T14:27:43.944Z,1.83
2018-04-13T14:30:11.503Z,3.63
2018-04-13T14:32:39.056Z,1.57
2018-04-13T14:35:06.617Z,2.53
2018-04-13T14:37:34.206Z,3.10
2018-04-13T14:40:01.751Z,2.20
2018-04-13T14:42:29.346Z,1.67
2018-04-13T14:44:56.960Z,1.37
2018-04-13T14:47:24.530Z,3.00
2018-04-13T14:49:52.148Z,2.27
2018-04-13T14:52:19.718Z,1.70
2018-04-13T14:54:47.272Z,2.30
2018-04-13T14:57:14.829Z,2.30
2018-04-13T14:59:42.379Z,1.03
2018-04-13T15:02:09.921Z,1.80
2018-04-13T15:04:37.490Z,2.10
2018-04-13T15:07:05.093Z,2.00
2018-04-13T15:09:32.663Z,1.80
2018-04-13T15:12:00.229Z,2.70
2018-04-13T15:14:27.800Z,4.93
2018-04-13T15:16:55.448Z,3.17
2018-04-13T15:19:23.008Z,1.63
2018-04-13T15:21:50.580Z,4.50
2018-04-13T15:24:18.192Z,14.27
2018-04-13T15:26:45.752Z,6.70
2018-04-13T15:29:13.342Z,1.50
2018-04-13T15:31:40.925Z,4.60
2018-04-13T15:34:08.520Z,3.00
2018-04-13T15:36:36.058Z,6.93
2018-04-13T15:39:03.644Z,3.73
2018-04-13T15:41:31.279Z,2.47
2018-04-13T15:43:58.868Z,20.00
2018-04-13T15:46:26.356Z,36.37
2018-04-13T15:48:53.832Z,7.57
2018-04-13T15:51:21.686Z,3.73
2018-04-13T15:53:49.243Z,2.70
2018-04-13T15:56:25.025Z,4.53
2018-04-13T15:59:09.233Z,3.70
2018-04-13T16:01:45.375Z,4.10
2018-04-13T16:04:14.937Z,1.37
2018-04-13T16:06:45.476Z,1.80
2018-04-13T16:12:19.294Z,16.60
2018-04-13T16:14:48.938Z,3.53
2018-04-13T16:17:20.189Z,2.40
2018-04-13T16:20:14.094Z,6.47
2018-04-13T16:22:49.312Z,1.53
2018-04-13T16:25:23.921Z,4.63
2018-04-13T16:28:02.387Z,2.73
2018-04-13T16:30:35.691Z,4.20
2018-04-13T16:33:06.514Z,12.67
2018-04-13T16:38:20.301Z,7.37
2018-04-13T16:40:53.578Z,20.87
2018-04-13T16:43:24.297Z,2.40
2018-04-13T16:45:52.856Z,2.30
2018-04-13T16:48:26.981Z,17.13
2018-04-13T16:50:58.249Z,1.50
2018-04-13T16:53:35.453Z,13.57
2018-04-13T17:01:52.567Z,5.33
2018-04-13T17:04:26.003Z,8.73
2018-04-13T17:06:58.952Z,11.17
2018-04-13T17:09:35.208Z,7.03
2018-04-13T17:24:25.526Z,24.30
